sensor_id;sensor_type;location;lat;lon;timestamp;pressure;altitude;pressure_sealevel;temperature;humidity
20027;BME280;10174;42.688;23.344;2023-06-22T00:01:09;95689.28;;;17.73;97.34
20027;BME280;10174;42.688;23.344;2023-06-22T00:03:34;95748.75;;;18.08;96.51
20027;BME280;10174;42.688;23.344;2023-06-22T00:05:59;95742.50;;;18.07;96.17
20027;BME280;10174;42.688;23.344;2023-06-22T00:08:25;95698.34;;;17.69;96.70
20027;BME280;10174;42.688;23.344;2023-06-22T00:10:50;95708.19;;;17.65;97.45
20027;BME280;10174;42.688;23.344;2023-06-22T00:13:16;95732.75;;;17.73;97.81
20027;BME280;10174;42.688;23.344;2023-06-22T00:15:43;95726.59;;;17.68;98.03
20027;BME280;10174;42.688;23.344;2023-06-22T00:18:09;95728.22;;;17.69;98.15
20027;BME280;10174;42.688;23.344;2023-06-22T00:20:35;95621.13;;;16.95;98.49
20027;BME280;10174;42.688;23.344;2023-06-22T00:23:05;95628.38;;;17.00;98.42
20027;BME280;10174;42.688;23.344;2023-06-22T00:25:42;95715.41;;;17.55;98.48
20027;BME280;10174;42.688;23.344;2023-06-22T00:28:08;95704.44;;;17.60;98.17
20027;BME280;10174;42.688;23.344;2023-06-22T00:30:34;95694.88;;;17.49;98.12
20027;BME280;10174;42.688;23.344;2023-06-22T00:33:00;95699.28;;;17.45;97.98
20027;BME280;10174;42.688;23.344;2023-06-22T00:35:26;95712.59;;;17.60;97.63
20027;BME280;10174;42.688;23.344;2023-06-22T00:37:58;95708.34;;;17.54;97.76
20027;BME280;10174;42.688;23.344;2023-06-22T00:40:26;95608.56;;;16.80;98.15
20027;BME280;10174;42.688;23.344;2023-06-22T00:42:52;95706.13;;;17.42;98.43
20027;BME280;10174;42.688;23.344;2023-06-22T00:45:17;95711.47;;;17.48;98.49
20027;BME280;10174;42.688;23.344;2023-06-22T00:47:43;95710.44;;;17.43;98.81
20027;BME280;10174;42.688;23.344;2023-06-22T00:50:16;95714.34;;;17.37;99.60
20027;BME280;10174;42.688;23.344;2023-06-22T00:52:43;95717.78;;;17.43;99.66
20027;BME280;10174;42.688;23.344;2023-06-22T00:55:09;95691.63;;;17.33;99.38
20027;BME280;10174;42.688;23.344;2023-06-22T00:57:35;95702.69;;;17.37;99.14
20027;BME280;10174;42.688;23.344;2023-06-22T01:00:02;95709.31;;;17.31;99.87
20027;BME280;10174;42.688;23.344;2023-06-22T01:02:31;95711.91;;;17.36;99.74
20027;BME280;10174;42.688;23.344;2023-06-22T01:04:57;95723.38;;;17.33;100.00
20027;BME280;10174;42.688;23.344;2023-06-22T01:12:53;95698.59;;;17.20;100.00
20027;BME280;10174;42.688;23.344;2023-06-22T01:15:46;95636.88;;;16.74;100.00
20027;BME280;10174;42.688;23.344;2023-06-22T01:18:14;95722.44;;;17.23;100.00
20027;BME280;10174;42.688;23.344;2023-06-22T01:20:42;95708.16;;;16.99;100.00
20027;BME280;10174;42.688;23.344;2023-06-22T01:23:37;95730.53;;;17.09;100.00
20027;BME280;10174;42.688;23.344;2023-06-22T01:28:46;95724.31;;;17.09;100.00
20027;BME280;10174;42.688;23.344;2023-06-22T01:31:15;95713.59;;;16.99;100.00
20027;BME280;10174;42.688;23.344;2023-06-22T01:33:44;95720.47;;;17.10;100.00
20027;BME280;10174;42.688;23.344;2023-06-22T01:36:11;95716.75;;;17.06;100.00
20027;BME280;10174;42.688;23.344;2023-06-22T01:38:38;95745.78;;;17.05;100.00
20027;BME280;10174;42.688;23.344;2023-06-22T01:41:04;95725.81;;;16.96;100.00
20027;BME280;10174;42.688;23.344;2023-06-22T01:43:31;95714.84;;;16.87;100.00
20027;BME280;10174;42.688;23.344;2023-06-22T01:46:00;95703.06;;;16.73;100.00
20027;BME280;10174;42.688;23.344;2023-06-22T01:48:26;95722.56;;;16.75;100.00
20027;BME280;10174;42.688;23.344;2023-06-22T01:50:52;95719.97;;;16.89;100.00
20027;BME280;10174;42.688;23.344;2023-06-22T01:53:21;95722.56;;;16.75;100.00
20027;BME280;10174;42.688;23.344;2023-06-22T01:55:46;95729.72;;;16.66;100.00
20027;BME280;10174;42.688;23.344;2023-06-22T01:58:12;95717.78;;;16.67;100.00
20027;BME280;10174;42.688;23.344;2023-06-22T02:00:40;95745.25;;;16.84;100.00
20027;BME280;10174;42.688;23.344;2023-06-22T02:03:30;95756.97;;;16.80;100.00
20027;BME280;10174;42.688;23.344;2023-06-22T02:06:07;95646.97;;;16.06;100.00
20027;BME280;10174;42.688;23.344;2023-06-22T02:08:40;95724.75;;;16.54;100.00
20027;BME280;10174;42.688;23.344;2023-06-22T02:11:08;95743.28;;;16.66;100.00
20027;BME280;10174;42.688;23.344;2023-06-22T02:13:35;95759.41;;;16.81;100.00
20027;BME280;10174;42.688;23.344;2023-06-22T02:16:01;95748.31;;;16.78;100.00
20027;BME280;10174;42.688;23.344;2023-06-22T02:18:26;95744.03;;;16.71;100.00
20027;BME280;10174;42.688;23.344;2023-06-22T02:20:53;95743.09;;;16.62;100.00
20027;BME280;10174;42.688;23.344;2023-06-22T02:23:18;95744.47;;;16.60;100.00
20027;BME280;10174;42.688;23.344;2023-06-22T02:25:45;95740.19;;;16.53;100.00
20027;BME280;10174;42.688;23.344;2023-06-22T02:28:10;95753.72;;;16.59;100.00
20027;BME280;10174;42.688;23.344;2023-06-22T02:30:36;95729.94;;;16.50;100.00
20027;BME280;10174;42.688;23.344;2023-06-22T02:33:01;95717.50;;;16.49;100.00
20027;BME280;10174;42.688;23.344;2023-06-22T02:35:28;95722.56;;;16.56;100.00
20027;BME280;10174;42.688;23.344;2023-06-22T02:37:58;95746.16;;;16.55;100.00
20027;BME280;10174;42.688;23.344;2023-06-22T02:40:24;95744.25;;;16.56;100.00
20027;BME280;10174;42.688;23.344;2023-06-22T02:42:50;95717.50;;;16.49;100.00
20027;BME280;10174;42.688;23.344;2023-06-22T02:45:15;95751.88;;;16.54;100.00
20027;BME280;10174;42.688;23.344;2023-06-22T02:47:41;95753.47;;;16.55;100.00
20027;BME280;10174;42.688;23.344;2023-06-22T02:50:06;95750.47;;;16.56;100.00
20027;BME280;10174;42.688;23.344;2023-06-22T02:52:32;95747.03;;;16.51;100.00
20027;BME280;10174;42.688;23.344;2023-06-22T02:54:57;95755.31;;;16.60;100.00
20027;BME280;10174;42.688;23.344;2023-06-22T02:57:23;95735.16;;;16.47;100.00
20027;BME280;10174;42.688;23.344;2023-06-22T02:59:48;95751.59;;;16.55;100.00
20027;BME280;10174;42.688;23.344;2023-06-22T03:02:14;95761.31;;;16.56;100.00
20027;BME280;10174;42.688;23.344;2023-06-22T03:04:39;95751.88;;;16.54;100.00
20027;BME280;10174;42.688;23.344;2023-06-22T03:07:04;95744.47;;;16.60;100.00
20027;BME280;10174;42.688;23.344;2023-06-22T03:09:30;95756.72;;;16.57;100.00
20027;BME280;10174;42.688;23.344;2023-06-22T03:11:55;95701.00;;;16.21;100.00
20027;BME280;10174;42.688;23.344;2023-06-22T03:14:21;95767.41;;;16.67;100.00
20027;BME280;10174;42.688;23.344;2023-06-22T03:16:46;95763.75;;;16.58;100.00
20027;BME280;10174;42.688;23.344;2023-06-22T03:19:12;95671.94;;;16.03;100.00
20027;BME280;10174;42.688;23.344;2023-06-22T03:21:39;95776.31;;;16.73;100.00
20027;BME280;10174;42.688;23.344;2023-06-22T03:24:05;95791.19;;;16.76;100.00
20027;BME280;10174;42.688;23.344;2023-06-22T03:26:31;95784.69;;;16.77;100.00
20027;BME280;10174;42.688;23.344;2023-06-22T03:28:56;95780.75;;;16.88;100.00
20027;BME280;10174;42.688;23.344;2023-06-22T03:31:22;95791.66;;;16.83;100.00
20027;BME280;10174;42.688;23.344;2023-06-22T03:33:48;95780.06;;;16.77;100.00
20027;BME280;10174;42.688;23.344;2023-06-22T03:36:15;95782.59;;;16.92;99.49
20027;BME280;10174;42.688;23.344;2023-06-22T03:38:47;95789.56;;;16.99;98.81
20027;BME280;10174;42.688;23.344;2023-06-22T03:41:13;95770.06;;;16.97;99.71
20027;BME280;10174;42.688;23.344;2023-06-22T03:43:38;95793.25;;;17.08;100.00
20027;BME280;10174;42.688;23.344;2023-06-22T03:46:04;95769.03;;;16.92;100.00
20027;BME280;10174;42.688;23.344;2023-06-22T03:48:29;95786.72;;;17.09;100.00
20027;BME280;10174;42.688;23.344;2023-06-22T03:50:55;95787.72;;;17.13;100.00
20027;BME280;10174;42.688;23.344;2023-06-22T03:53:20;95689.72;;;16.58;100.00
20027;BME280;10174;42.688;23.344;2023-06-22T03:55:50;95800.00;;;17.30;100.00
20027;BME280;10174;42.688;23.344;2023-06-22T03:58:17;95805.72;;;17.28;100.00
20027;BME280;10174;42.688;23.344;2023-06-22T04:00:47;95810.94;;;17.24;97.73
20027;BME280;10174;42.688;23.344;2023-06-22T04:03:13;95788.25;;;17.15;97.64
20027;BME280;10174;42.688;23.344;2023-06-22T04:05:39;95807.56;;;17.33;97.42
20027;BME280;10174;42.688;23.344;2023-06-22T04:08:05;95809.38;;;17.37;96.90
20027;BME280;10174;42.688;23.344;2023-06-22T04:10:31;95802.06;;;17.38;96.71
20027;BME280;10174;42.688;23.344;2023-06-22T04:12:56;95801.81;;;17.34;96.16
20027;BME280;10174;42.688;23.344;2023-06-22T04:15:22;95794.88;;;17.47;96.30
20027;BME280;10174;42.688;23.344;2023-06-22T04:17:47;95797.28;;;17.49;95.94
20027;BME280;10174;42.688;23.344;2023-06-22T04:20:13;95783.56;;;17.40;94.58
20027;BME280;10174;42.688;23.344;2023-06-22T04:22:38;95721.44;;;17.00;95.06
20027;BME280;10174;42.688;23.344;2023-06-22T04:25:06;95771.00;;;17.44;94.33
20027;BME280;10174;42.688;23.344;2023-06-22T04:27:33;95776.19;;;17.59;93.80
20027;BME280;10174;42.688;23.344;2023-06-22T04:30:03;95775.72;;;17.71;93.43
20027;BME280;10174;42.688;23.344;2023-06-22T04:32:29;95768.22;;;17.82;93.84
20027;BME280;10174;42.688;23.344;2023-06-22T04:34:54;95776.81;;;17.89;93.46
20027;BME280;10174;42.688;23.344;2023-06-22T04:37:20;95772.03;;;17.81;93.91
20027;BME280;10174;42.688;23.344;2023-06-22T04:39:49;95770.28;;;17.90;93.97
20027;BME280;10174;42.688;23.344;2023-06-22T04:42:14;95757.41;;;17.96;94.14
20027;BME280;10174;42.688;23.344;2023-06-22T04:44:40;95764.06;;;18.04;93.51
20027;BME280;10174;42.688;23.344;2023-06-22T04:47:07;95782.59;;;18.15;92.52
20027;BME280;10174;42.688;23.344;2023-06-22T04:49:35;95772.53;;;18.16;92.20
20027;BME280;10174;42.688;23.344;2023-06-22T04:52:03;95783.22;;;18.26;91.92
20027;BME280;10174;42.688;23.344;2023-06-22T04:54:30;95768.13;;;18.20;91.71
20027;BME280;10174;42.688;23.344;2023-06-22T04:57:01;95799.25;;;18.42;89.76
20027;BME280;10174;42.688;23.344;2023-06-22T04:59:29;95799.56;;;18.54;89.13
20027;BME280;10174;42.688;23.344;2023-06-22T05:01:59;95797.34;;;18.56;88.89
20027;BME280;10174;42.688;23.344;2023-06-22T05:04:26;95783.25;;;18.54;88.65
20027;BME280;10174;42.688;23.344;2023-06-22T05:06:53;95699.91;;;18.03;88.49
20027;BME280;10174;42.688;23.344;2023-06-22T05:09:20;95796.13;;;18.62;88.69
20027;BME280;10174;42.688;23.344;2023-06-22T05:11:46;95774.16;;;18.59;88.11
20027;BME280;10174;42.688;23.344;2023-06-22T05:14:12;95797.31;;;18.84;86.52
20027;BME280;10174;42.688;23.344;2023-06-22T05:16:38;95808.16;;;18.89;85.57
20027;BME280;10174;42.688;23.344;2023-06-22T05:19:03;95797.13;;;18.94;85.72
20027;BME280;10174;42.688;23.344;2023-06-22T05:21:30;95800.44;;;19.05;84.94
20027;BME280;10174;42.688;23.344;2023-06-22T05:23:56;95691.34;;;18.51;84.56
20027;BME280;10174;42.688;23.344;2023-06-22T05:26:26;95799.72;;;19.50;83.73
20027;BME280;10174;42.688;23.344;2023-06-22T05:28:51;95809.97;;;20.43;79.10
20027;BME280;10174;42.688;23.344;2023-06-22T05:31:17;95795.66;;;22.53;70.11
20027;BME280;10174;42.688;23.344;2023-06-22T05:33:45;95799.97;;;24.07;63.54
20027;BME280;10174;42.688;23.344;2023-06-22T05:36:11;95788.53;;;25.65;57.37
20027;BME280;10174;42.688;23.344;2023-06-22T05:38:38;95801.88;;;26.20;55.33
20027;BME280;10174;42.688;23.344;2023-06-22T05:41:03;95777.03;;;26.64;53.20
20027;BME280;10174;42.688;23.344;2023-06-22T05:43:29;95805.50;;;27.71;50.19
20027;BME280;10174;42.688;23.344;2023-06-22T05:45:54;95810.50;;;28.01;48.94
20027;BME280;10174;42.688;23.344;2023-06-22T05:48:19;95808.81;;;28.82;47.27
20027;BME280;10174;42.688;23.344;2023-06-22T05:50:45;95803.16;;;25.53;54.26
20027;BME280;10174;42.688;23.344;2023-06-22T05:53:10;95812.78;;;25.10;57.18
20027;BME280;10174;42.688;23.344;2023-06-22T05:55:36;95798.28;;;24.97;56.95
20027;BME280;10174;42.688;23.344;2023-06-22T05:58:02;95817.94;;;24.62;59.08
20027;BME280;10174;42.688;23.344;2023-06-22T06:00:28;95735.97;;;24.40;57.48
20027;BME280;10174;42.688;23.344;2023-06-22T06:02:54;95803.94;;;24.43;59.02
20027;BME280;10174;42.688;23.344;2023-06-22T06:05:19;95821.50;;;24.29;60.33
20027;BME280;10174;42.688;23.344;2023-06-22T06:07:45;95825.78;;;23.63;62.79
20027;BME280;10174;42.688;23.344;2023-06-22T06:10:10;95814.59;;;23.56;63.71
20027;BME280;10174;42.688;23.344;2023-06-22T06:12:36;95744.28;;;22.80;64.64
20027;BME280;10174;42.688;23.344;2023-06-22T06:15:03;95813.94;;;24.26;61.12
20027;BME280;10174;42.688;23.344;2023-06-22T06:17:28;95780.72;;;26.08;55.24
20027;BME280;10174;42.688;23.344;2023-06-22T06:19:54;95795.63;;;27.70;51.75
20027;BME280;10174;42.688;23.344;2023-06-22T06:22:19;95807.09;;;27.52;50.84
20027;BME280;10174;42.688;23.344;2023-06-22T06:24:46;95790.69;;;26.73;52.90
20027;BME280;10174;42.688;23.344;2023-06-22T06:27:12;95792.06;;;26.06;56.15
20027;BME280;10174;42.688;23.344;2023-06-22T06:29:38;95800.06;;;25.18;58.89
20027;BME280;10174;42.688;23.344;2023-06-22T06:32:03;95798.50;;;24.67;60.55
20027;BME280;10174;42.688;23.344;2023-06-22T06:34:29;95799.13;;;24.52;61.89
20027;BME280;10174;42.688;23.344;2023-06-22T06:36:54;95713.38;;;23.63;61.78
20027;BME280;10174;42.688;23.344;2023-06-22T06:39:20;95789.81;;;23.65;63.50
20027;BME280;10174;42.688;23.344;2023-06-22T06:41:45;95791.97;;;23.59;64.07
20027;BME280;10174;42.688;23.344;2023-06-22T06:44:11;95791.03;;;23.97;62.21
20027;BME280;10174;42.688;23.344;2023-06-22T06:46:36;95746.53;;;23.92;62.18
20027;BME280;10174;42.688;23.344;2023-06-22T06:49:03;95762.28;;;23.61;63.03
20027;BME280;10174;42.688;23.344;2023-06-22T06:51:28;95794.47;;;24.07;62.32
20027;BME280;10174;42.688;23.344;2023-06-22T06:53:54;95783.59;;;24.56;61.44
20027;BME280;10174;42.688;23.344;2023-06-22T06:56:19;95773.44;;;24.81;60.66
20027;BME280;10174;42.688;23.344;2023-06-22T06:58:45;95765.53;;;25.04;60.78
20027;BME280;10174;42.688;23.344;2023-06-22T07:01:11;95780.41;;;25.03;61.09
20027;BME280;10174;42.688;23.344;2023-06-22T07:03:38;95710.47;;;24.51;59.23
20027;BME280;10174;42.688;23.344;2023-06-22T07:06:03;95762.56;;;24.73;60.92
20027;BME280;10174;42.688;23.344;2023-06-22T07:08:29;95746.06;;;24.48;62.24
20027;BME280;10174;42.688;23.344;2023-06-22T07:10:54;95772.13;;;24.42;62.07
20027;BME280;10174;42.688;23.344;2023-06-22T07:13:20;95714.78;;;24.03;63.16
20027;BME280;10174;42.688;23.344;2023-06-22T07:15:45;95770.53;;;24.41;62.31
20027;BME280;10174;42.688;23.344;2023-06-22T07:18:10;95787.47;;;24.55;61.83
20027;BME280;10174;42.688;23.344;2023-06-22T07:20:36;95746.97;;;24.40;62.05
20027;BME280;10174;42.688;23.344;2023-06-22T07:23:01;95770.47;;;24.86;61.10
20027;BME280;10174;42.688;23.344;2023-06-22T07:25:27;95775.28;;;24.89;60.43
20027;BME280;10174;42.688;23.344;2023-06-22T07:28:03;95689.19;;;24.48;61.26
20027;BME280;10174;42.688;23.344;2023-06-22T07:30:30;95676.97;;;24.58;59.65
20027;BME280;10174;42.688;23.344;2023-06-22T07:32:56;95777.19;;;25.14;60.48
20027;BME280;10174;42.688;23.344;2023-06-22T07:35:23;95771.13;;;25.08;60.55
20027;BME280;10174;42.688;23.344;2023-06-22T07:37:49;95777.91;;;24.98;60.17
20027;BME280;10174;42.688;23.344;2023-06-22T07:40:14;95771.50;;;24.94;60.25
20027;BME280;10174;42.688;23.344;2023-06-22T07:42:39;95776.41;;;25.01;60.20
20027;BME280;10174;42.688;23.344;2023-06-22T07:45:06;95761.06;;;25.00;59.68
20027;BME280;10174;42.688;23.344;2023-06-22T07:47:33;95767.47;;;25.04;58.30
20027;BME280;10174;42.688;23.344;2023-06-22T07:50:01;95780.38;;;25.16;58.55
20027;BME280;10174;42.688;23.344;2023-06-22T07:52:31;95777.84;;;25.48;58.01
20027;BME280;10174;42.688;23.344;2023-06-22T07:54:57;95765.50;;;25.70;56.66
20027;BME280;10174;42.688;23.344;2023-06-22T07:57:22;95685.00;;;25.57;55.91
20027;BME280;10174;42.688;23.344;2023-06-22T07:59:47;95760.84;;;26.15;54.38
20027;BME280;10174;42.688;23.344;2023-06-22T08:02:13;95688.59;;;25.73;55.40
20027;BME280;10174;42.688;23.344;2023-06-22T08:04:39;95743.91;;;26.60;54.28
20027;BME280;10174;42.688;23.344;2023-06-22T08:07:05;95707.75;;;26.62;51.99
20027;BME280;10174;42.688;23.344;2023-06-22T08:09:31;95694.75;;;26.62;53.01
20027;BME280;10174;42.688;23.344;2023-06-22T08:11:58;95761.22;;;26.93;52.77
20027;BME280;10174;42.688;23.344;2023-06-22T08:14:26;95741.03;;;27.05;52.83
20027;BME280;10174;42.688;23.344;2023-06-22T08:16:52;95761.00;;;27.17;52.23
20027;BME280;10174;42.688;23.344;2023-06-22T08:19:17;95754.53;;;27.45;52.10
20027;BME280;10174;42.688;23.344;2023-06-22T08:21:43;95747.06;;;28.28;50.39
20027;BME280;10174;42.688;23.344;2023-06-22T08:24:09;95747.25;;;28.15;50.64
20027;BME280;10174;42.688;23.344;2023-06-22T08:26:34;95751.44;;;28.29;49.92
20027;BME280;10174;42.688;23.344;2023-06-22T08:29:05;95740.47;;;28.78;48.98
20027;BME280;10174;42.688;23.344;2023-06-22T08:31:31;95712.88;;;28.82;48.54
20027;BME280;10174;42.688;23.344;2023-06-22T08:33:58;95712.34;;;29.57;45.72
20027;BME280;10174;42.688;23.344;2023-06-22T08:36:24;95742.88;;;29.98;45.45
20027;BME280;10174;42.688;23.344;2023-06-22T08:38:50;95740.53;;;30.00;45.00
20027;BME280;10174;42.688;23.344;2023-06-22T08:41:17;95740.41;;;29.89;44.86
20027;BME280;10174;42.688;23.344;2023-06-22T08:43:43;95718.59;;;28.96;46.38
20027;BME280;10174;42.688;23.344;2023-06-22T08:46:09;95737.31;;;30.35;43.16
20027;BME280;10174;42.688;23.344;2023-06-22T08:48:35;95729.34;;;29.89;44.19
20027;BME280;10174;42.688;23.344;2023-06-22T08:51:00;95721.41;;;30.25;43.08
20027;BME280;10174;42.688;23.344;2023-06-22T08:53:26;95738.72;;;31.82;40.35
20027;BME280;10174;42.688;23.344;2023-06-22T08:55:51;95728.78;;;33.82;36.98
20027;BME280;10174;42.688;23.344;2023-06-22T08:58:16;95712.03;;;36.09;33.20
20027;BME280;10174;42.688;23.344;2023-06-22T09:00:43;95693.44;;;36.26;32.75
20027;BME280;10174;42.688;23.344;2023-06-22T09:03:08;95713.81;;;35.95;33.79
20027;BME280;10174;42.688;23.344;2023-06-22T09:05:34;95720.16;;;37.05;31.49
20027;BME280;10174;42.688;23.344;2023-06-22T09:07:59;95719.69;;;37.74;31.23
20027;BME280;10174;42.688;23.344;2023-06-22T09:10:25;95709.38;;;39.39;28.96
20027;BME280;10174;42.688;23.344;2023-06-22T09:12:50;95621.66;;;39.18;27.33
20027;BME280;10174;42.688;23.344;2023-06-22T09:15:16;95704.00;;;38.33;29.05
20027;BME280;10174;42.688;23.344;2023-06-22T09:17:41;95708.22;;;38.91;28.82
20027;BME280;10174;42.688;23.344;2023-06-22T09:20:07;95657.03;;;38.54;28.66
20027;BME280;10174;42.688;23.344;2023-06-22T09:22:35;95701.34;;;39.83;26.60
20027;BME280;10174;42.688;23.344;2023-06-22T09:25:01;95685.06;;;38.37;29.05
20027;BME280;10174;42.688;23.344;2023-06-22T09:27:27;95641.78;;;38.55;28.18
20027;BME280;10174;42.688;23.344;2023-06-22T09:29:53;95711.63;;;40.80;26.21
20027;BME280;10174;42.688;23.344;2023-06-22T09:32:18;95701.69;;;41.36;24.94
20027;BME280;10174;42.688;23.344;2023-06-22T09:34:44;95719.53;;;40.59;25.20
20027;BME280;10174;42.688;23.344;2023-06-22T09:37:09;95711.91;;;39.04;27.47
20027;BME280;10174;42.688;23.344;2023-06-22T09:39:35;95718.84;;;38.13;29.20
20027;BME280;10174;42.688;23.344;2023-06-22T09:42:02;95696.72;;;37.99;29.52
20027;BME280;10174;42.688;23.344;2023-06-22T09:44:27;95704.53;;;38.44;27.58
20027;BME280;10174;42.688;23.344;2023-06-22T09:46:53;95706.38;;;37.98;29.03
20027;BME280;10174;42.688;23.344;2023-06-22T09:49:18;95713.97;;;37.37;29.27
20027;BME280;10174;42.688;23.344;2023-06-22T09:51:43;95707.47;;;37.20;30.27
20027;BME280;10174;42.688;23.344;2023-06-22T09:54:09;95700.19;;;37.87;29.31
20027;BME280;10174;42.688;23.344;2023-06-22T09:56:34;95686.31;;;38.36;28.99
20027;BME280;10174;42.688;23.344;2023-06-22T09:58:59;95674.22;;;38.39;29.17
20027;BME280;10174;42.688;23.344;2023-06-22T10:01:25;95694.47;;;38.63;29.10
20027;BME280;10174;42.688;23.344;2023-06-22T10:03:52;95686.66;;;38.55;28.46
20027;BME280;10174;42.688;23.344;2023-06-22T10:06:21;95678.09;;;38.09;29.46
20027;BME280;10174;42.688;23.344;2023-06-22T10:08:47;95687.25;;;37.53;28.47
20027;BME280;10174;42.688;23.344;2023-06-22T10:11:13;95681.50;;;36.72;29.21
20027;BME280;10174;42.688;23.344;2023-06-22T10:13:39;95597.59;;;35.40;29.64
20027;BME280;10174;42.688;23.344;2023-06-22T10:16:04;95662.78;;;35.22;29.79
20027;BME280;10174;42.688;23.344;2023-06-22T10:18:30;95677.81;;;34.97;30.40
20027;BME280;10174;42.688;23.344;2023-06-22T10:20:56;95658.63;;;36.30;28.98
20027;BME280;10174;42.688;23.344;2023-06-22T10:23:22;95660.31;;;37.19;28.39
20027;BME280;10174;42.688;23.344;2023-06-22T10:25:47;95685.25;;;37.73;27.79
20027;BME280;10174;42.688;23.344;2023-06-22T10:28:13;95659.31;;;37.69;27.67
20027;BME280;10174;42.688;23.344;2023-06-22T10:30:42;95603.88;;;38.63;26.09
20027;BME280;10174;42.688;23.344;2023-06-22T10:33:08;95674.53;;;39.66;25.57
20027;BME280;10174;42.688;23.344;2023-06-22T10:35:35;95660.47;;;36.41;28.50
20027;BME280;10174;42.688;23.344;2023-06-22T10:38:02;95594.63;;;35.54;29.94
20027;BME280;10174;42.688;23.344;2023-06-22T10:40:28;95591.94;;;34.78;31.35
20027;BME280;10174;42.688;23.344;2023-06-22T10:42:53;95665.94;;;34.86;31.81
20027;BME280;10174;42.688;23.344;2023-06-22T10:45:19;95669.72;;;36.07;30.14
20027;BME280;10174;42.688;23.344;2023-06-22T10:47:44;95646.59;;;36.06;29.52
20027;BME280;10174;42.688;23.344;2023-06-22T10:50:10;95666.56;;;36.05;29.42
20027;BME280;10174;42.688;23.344;2023-06-22T10:52:35;95621.44;;;36.06;28.88
20027;BME280;10174;42.688;23.344;2023-06-22T10:55:01;95650.97;;;36.34;29.20
20027;BME280;10174;42.688;23.344;2023-06-22T10:57:26;95658.88;;;36.63;28.56
20027;BME280;10174;42.688;23.344;2023-06-22T10:59:52;95623.00;;;37.25;27.35
20027;BME280;10174;42.688;23.344;2023-06-22T11:02:17;95637.09;;;36.98;27.51
20027;BME280;10174;42.688;23.344;2023-06-22T11:04:43;95643.88;;;37.61;27.33
20027;BME280;10174;42.688;23.344;2023-06-22T11:07:09;95646.91;;;39.35;26.22
20027;BME280;10174;42.688;23.344;2023-06-22T11:09:34;95614.03;;;38.90;25.98
20027;BME280;10174;42.688;23.344;2023-06-22T11:12:00;95637.53;;;38.63;26.44
20027;BME280;10174;42.688;23.344;2023-06-22T11:14:25;95649.50;;;39.42;25.81
20027;BME280;10174;42.688;23.344;2023-06-22T11:16:51;95601.78;;;38.01;27.32
20027;BME280;10174;42.688;23.344;2023-06-22T11:19:17;95632.66;;;36.30;29.13
20027;BME280;10174;42.688;23.344;2023-06-22T11:21:42;95637.84;;;36.55;28.20
20027;BME280;10174;42.688;23.344;2023-06-22T11:24:08;95526.25;;;34.70;30.72
20027;BME280;10174;42.688;23.344;2023-06-22T11:26:33;95548.56;;;34.70;32.34
20027;BME280;10174;42.688;23.344;2023-06-22T11:28:59;95619.69;;;34.47;31.47
20027;BME280;10174;42.688;23.344;2023-06-22T11:31:25;95620.19;;;33.79;32.65
20027;BME280;10174;42.688;23.344;2023-06-22T11:33:50;95627.22;;;33.98;31.26
20027;BME280;10174;42.688;23.344;2023-06-22T11:36:16;95635.78;;;33.62;33.03
20027;BME280;10174;42.688;23.344;2023-06-22T11:38:42;95615.63;;;33.36;32.58
20027;BME280;10174;42.688;23.344;2023-06-22T11:41:09;95607.06;;;32.69;34.02
20027;BME280;10174;42.688;23.344;2023-06-22T11:43:34;95610.63;;;31.94;35.13
20027;BME280;10174;42.688;23.344;2023-06-22T11:46:02;95629.31;;;32.44;36.11
20027;BME280;10174;42.688;23.344;2023-06-22T11:48:27;95609.47;;;32.27;35.66
20027;BME280;10174;42.688;23.344;2023-06-22T11:50:53;95619.78;;;32.48;35.99
20027;BME280;10174;42.688;23.344;2023-06-22T11:53:20;95562.63;;;32.19;36.31
20027;BME280;10174;42.688;23.344;2023-06-22T11:55:46;95614.63;;;32.14;35.72
20027;BME280;10174;42.688;23.344;2023-06-22T11:58:12;95600.69;;;31.93;35.94
20027;BME280;10174;42.688;23.344;2023-06-22T12:00:37;95617.78;;;31.95;35.34
20027;BME280;10174;42.688;23.344;2023-06-22T12:03:03;95615.75;;;31.74;36.05
20027;BME280;10174;42.688;23.344;2023-06-22T12:05:28;95598.97;;;31.34;35.83
20027;BME280;10174;42.688;23.344;2023-06-22T12:07:54;95602.94;;;31.40;35.41
20027;BME280;10174;42.688;23.344;2023-06-22T12:10:20;95569.63;;;31.26;36.55
20027;BME280;10174;42.688;23.344;2023-06-22T12:12:46;95605.31;;;31.42;37.70
20027;BME280;10174;42.688;23.344;2023-06-22T12:15:11;95589.34;;;31.06;38.23
20027;BME280;10174;42.688;23.344;2023-06-22T12:17:37;95629.13;;;31.50;39.88
20027;BME280;10174;42.688;23.344;2023-06-22T12:20:03;95631.25;;;30.94;39.07
20027;BME280;10174;42.688;23.344;2023-06-22T12:22:32;95611.25;;;30.11;40.38
20027;BME280;10174;42.688;23.344;2023-06-22T12:24:57;95631.63;;;29.51;42.33
20027;BME280;10174;42.688;23.344;2023-06-22T12:27:22;95657.94;;;29.38;44.26
20027;BME280;10174;42.688;23.344;2023-06-22T12:29:48;95582.09;;;28.74;46.36
20027;BME280;10174;42.688;23.344;2023-06-22T12:32:14;95652.91;;;29.17;45.44
20027;BME280;10174;42.688;23.344;2023-06-22T12:34:42;95673.66;;;29.30;46.19
20027;BME280;10174;42.688;23.344;2023-06-22T12:37:07;95681.47;;;28.44;49.23
20027;BME280;10174;42.688;23.344;2023-06-22T12:39:33;95622.41;;;27.20;52.05
20027;BME280;10174;42.688;23.344;2023-06-22T12:41:58;95684.69;;;27.22;55.04
20027;BME280;10174;42.688;23.344;2023-06-22T12:44:23;95684.41;;;26.91;58.17
20027;BME280;10174;42.688;23.344;2023-06-22T12:46:49;95676.25;;;26.63;59.49
20027;BME280;10174;42.688;23.344;2023-06-22T12:49:14;95663.50;;;26.55;60.35
20027;BME280;10174;42.688;23.344;2023-06-22T12:51:41;95663.69;;;25.98;59.83